createdAt,value
2019-04-29T00:00:53.599Z,4.87
2019-04-29T00:15:51.206Z,4.05
2019-04-29T00:30:49.545Z,4.87
2019-04-29T00:45:53.533Z,4.85
2019-04-29T01:00:49.551Z,4.75
2019-04-29T01:15:50.811Z,4.10
2019-04-29T01:30:59.994Z,4.65
2019-04-29T01:45:52.112Z,5.08
2019-04-29T02:00:51.098Z,5.75
2019-04-29T02:15:49.049Z,5.40
2019-04-29T02:30:51.965Z,5.10
2019-04-29T02:45:51.485Z,5.20
2019-04-29T03:15:50.515Z,6.15
2019-04-29T03:30:49.281Z,7.58
2019-04-29T03:45:49.770Z,6.28
2019-04-29T04:00:50.784Z,7.30
2019-04-29T04:15:59.754Z,7.78
2019-04-29T04:30:50.017Z,7.00
2019-04-29T04:45:49.393Z,6.78
2019-04-29T05:00:49.427Z,9.20
2019-04-29T05:15:49.697Z,6.90
2019-04-29T05:30:49.700Z,7.60
2019-04-29T06:00:54.153Z,7.90
2019-04-29T06:15:50.933Z,8.40
2019-04-29T06:30:50.076Z,8.03
2019-04-29T06:45:49.995Z,7.30
2019-04-29T07:00:51.019Z,6.85
2019-04-29T07:15:49.166Z,7.42
2019-04-29T07:31:00.895Z,6.47
2019-04-29T08:00:57.854Z,5.58
2019-04-29T08:15:49.983Z,5.42
2019-04-29T08:30:50.073Z,4.65
2019-04-29T09:00:51.422Z,4.92
2019-04-29T09:15:49.766Z,4.50
2019-04-29T09:30:49.724Z,5.17
2019-04-29T09:45:53.985Z,5.95
2019-04-29T10:00:58.490Z,4.50
2019-04-29T10:15:50.657Z,4.80
2019-04-29T10:30:53.056Z,4.90
2019-04-29T10:45:50.596Z,3.50
2019-04-29T11:15:55.449Z,3.95
2019-04-29T11:30:49.791Z,9.85
2019-04-29T11:45:55.827Z,4.25
2019-04-29T12:15:51.168Z,3.50
2019-04-29T12:30:51.230Z,3.83
2019-04-29T12:45:53.691Z,3.30
2019-04-29T13:00:56.365Z,2.80
2019-04-29T13:15:54.294Z,3.25
2019-04-29T13:30:51.402Z,3.58
2019-04-29T14:00:51.381Z,3.40
2019-04-29T14:15:49.138Z,3.10
2019-04-29T14:30:49.272Z,2.92
2019-04-29T15:00:50.727Z,2.55
2019-04-29T15:16:04.643Z,2.55
2019-04-29T15:30:49.369Z,2.45
2019-04-29T15:45:49.261Z,2.50
2019-04-29T16:00:49.330Z,1.90
2019-04-29T16:30:49.552Z,2.70
2019-04-29T17:15:52.158Z,2.27
2019-04-29T18:16:01.732Z,6.83
2019-04-29T18:45:56.216Z,7.20
2019-04-29T19:00:57.235Z,9.50
2019-04-29T19:15:52.643Z,8.30
2019-04-29T20:45:58.090Z,5.55
2019-04-29T21:01:02.109Z,4.55
2019-04-29T21:15:55.519Z,4.30
2019-04-29T21:45:55.528Z,4.40
2019-04-29T22:00:59.068Z,4.17
2019-04-29T22:15:49.336Z,3.77
2019-04-29T22:30:56.088Z,4.10
2019-04-29T22:45:55.265Z,3.70
2019-04-29T23:00:49.157Z,3.87
2019-04-29T23:45:56.934Z,3.00
